Terminal Aerodrome Forecast
Issued by NWS

Home | Current Version | Previous Version | Text Only | Print | Product List | Glossary On
Versions: 1 2 3 4 5 6 7 8 9 10 11 12 13 14 15 16
000
FTUS46 KPDT 301100
TAFDLS
TAF
KDLS 301120Z 3012/0112 30011KT P6SM SCT050
     FM301800 30015G25KT P6SM SCT050
     FM302100 30020G30KT P6SM SCT060
     FM010300 29011KT P6SM SKC=

USA.gov is the U.S. government's official web portal to all federal, state and local government web resources and services.